sensor_id;sensor_type;location;lat;lon;timestamp;temperature;humidity
21540;DHT22;10931;52.164;5.518;2023-05-29T00:01:41;25.20;53.60
21540;DHT22;10931;52.164;5.518;2023-05-29T00:04:07;25.20;53.70
21540;DHT22;10931;52.164;5.518;2023-05-29T00:06:33;25.20;53.70
21540;DHT22;10931;52.164;5.518;2023-05-29T00:08:58;25.20;53.70
21540;DHT22;10931;52.164;5.518;2023-05-29T00:11:24;25.20;53.70
21540;DHT22;10931;52.164;5.518;2023-05-29T00:13:52;25.20;53.70
21540;DHT22;10931;52.164;5.518;2023-05-29T00:16:18;25.10;53.60
21540;DHT22;10931;52.164;5.518;2023-05-29T00:18:44;25.10;53.60
21540;DHT22;10931;52.164;5.518;2023-05-29T00:21:15;25.10;53.60
21540;DHT22;10931;52.164;5.518;2023-05-29T00:23:41;25.10;53.70
21540;DHT22;10931;52.164;5.518;2023-05-29T00:26:07;25.10;53.60
21540;DHT22;10931;52.164;5.518;2023-05-29T00:28:34;25.10;53.60
21540;DHT22;10931;52.164;5.518;2023-05-29T00:31:01;25.10;53.70
21540;DHT22;10931;52.164;5.518;2023-05-29T00:33:28;25.10;53.70
21540;DHT22;10931;52.164;5.518;2023-05-29T00:35:53;25.00;53.60
21540;DHT22;10931;52.164;5.518;2023-05-29T00:38:19;25.00;53.60
21540;DHT22;10931;52.164;5.518;2023-05-29T00:40:45;25.00;53.70
21540;DHT22;10931;52.164;5.518;2023-05-29T00:43:11;25.00;53.70
21540;DHT22;10931;52.164;5.518;2023-05-29T00:45:40;25.00;53.70
21540;DHT22;10931;52.164;5.518;2023-05-29T00:48:06;25.00;53.70
21540;DHT22;10931;52.164;5.518;2023-05-29T00:50:32;25.00;53.70
21540;DHT22;10931;52.164;5.518;2023-05-29T00:53:02;25.00;53.70
21540;DHT22;10931;52.164;5.518;2023-05-29T00:55:35;25.00;53.70
21540;DHT22;10931;52.164;5.518;2023-05-29T00:58:01;24.90;53.70
21540;DHT22;10931;52.164;5.518;2023-05-29T01:00:27;24.90;53.70
21540;DHT22;10931;52.164;5.518;2023-05-29T01:02:53;24.90;53.70
21540;DHT22;10931;52.164;5.518;2023-05-29T01:05:19;24.90;53.70
21540;DHT22;10931;52.164;5.518;2023-05-29T01:07:53;24.90;53.70
21540;DHT22;10931;52.164;5.518;2023-05-29T01:10:19;24.90;53.70
21540;DHT22;10931;52.164;5.518;2023-05-29T01:13:07;24.90;53.70
21540;DHT22;10931;52.164;5.518;2023-05-29T01:16:16;24.90;53.70
21540;DHT22;10931;52.164;5.518;2023-05-29T01:18:51;24.80;53.70
21540;DHT22;10931;52.164;5.518;2023-05-29T01:21:45;24.80;53.70
21540;DHT22;10931;52.164;5.518;2023-05-29T01:27:25;24.80;53.70
21540;DHT22;10931;52.164;5.518;2023-05-29T01:29:54;24.80;53.70
21540;DHT22;10931;52.164;5.518;2023-05-29T01:32:21;24.80;53.70
21540;DHT22;10931;52.164;5.518;2023-05-29T01:34:50;24.80;53.80
21540;DHT22;10931;52.164;5.518;2023-05-29T01:37:15;24.80;53.80
21540;DHT22;10931;52.164;5.518;2023-05-29T01:39:41;24.80;53.80
21540;DHT22;10931;52.164;5.518;2023-05-29T01:42:08;24.80;53.80
21540;DHT22;10931;52.164;5.518;2023-05-29T01:44:34;24.70;54.40
21540;DHT22;10931;52.164;5.518;2023-05-29T01:47:01;24.70;53.80
21540;DHT22;10931;52.164;5.518;2023-05-29T01:49:28;24.70;53.80
21540;DHT22;10931;52.164;5.518;2023-05-29T01:51:55;24.70;53.80
21540;DHT22;10931;52.164;5.518;2023-05-29T01:54:21;24.70;53.80
21540;DHT22;10931;52.164;5.518;2023-05-29T01:56:46;24.60;53.80
21540;DHT22;10931;52.164;5.518;2023-05-29T01:59:14;24.70;53.80
21540;DHT22;10931;52.164;5.518;2023-05-29T02:01:41;24.70;53.80
21540;DHT22;10931;52.164;5.518;2023-05-29T02:04:08;24.60;53.80
21540;DHT22;10931;52.164;5.518;2023-05-29T02:06:33;24.60;53.80
21540;DHT22;10931;52.164;5.518;2023-05-29T02:09:17;24.60;53.80
21540;DHT22;10931;52.164;5.518;2023-05-29T02:11:54;24.60;53.90
21540;DHT22;10931;52.164;5.518;2023-05-29T02:14:20;24.60;53.90
21540;DHT22;10931;52.164;5.518;2023-05-29T02:17:02;24.60;53.90
21540;DHT22;10931;52.164;5.518;2023-05-29T02:19:29;24.60;53.90
21540;DHT22;10931;52.164;5.518;2023-05-29T02:21:56;24.50;53.90
21540;DHT22;10931;52.164;5.518;2023-05-29T02:24:44;24.60;53.90
21540;DHT22;10931;52.164;5.518;2023-05-29T02:27:12;24.50;53.90
21540;DHT22;10931;52.164;5.518;2023-05-29T02:29:38;24.50;53.90
21540;DHT22;10931;52.164;5.518;2023-05-29T02:32:04;24.50;53.90
21540;DHT22;10931;52.164;5.518;2023-05-29T02:34:40;24.50;53.90
21540;DHT22;10931;52.164;5.518;2023-05-29T02:37:06;24.50;53.90
21540;DHT22;10931;52.164;5.518;2023-05-29T02:39:31;24.50;54.00
21540;DHT22;10931;52.164;5.518;2023-05-29T02:42:00;24.50;53.90
21540;DHT22;10931;52.164;5.518;2023-05-29T02:44:25;24.50;54.00
21540;DHT22;10931;52.164;5.518;2023-05-29T02:46:51;24.40;53.90
21540;DHT22;10931;52.164;5.518;2023-05-29T02:49:16;24.40;53.90
21540;DHT22;10931;52.164;5.518;2023-05-29T02:51:42;24.40;53.90
21540;DHT22;10931;52.164;5.518;2023-05-29T02:54:08;24.40;53.90
21540;DHT22;10931;52.164;5.518;2023-05-29T02:56:33;24.40;53.90
21540;DHT22;10931;52.164;5.518;2023-05-29T02:58:59;24.40;54.00
21540;DHT22;10931;52.164;5.518;2023-05-29T03:01:25;24.30;53.90
21540;DHT22;10931;52.164;5.518;2023-05-29T03:03:51;24.40;54.00
21540;DHT22;10931;52.164;5.518;2023-05-29T03:06:17;24.40;54.00
21540;DHT22;10931;52.164;5.518;2023-05-29T03:08:43;24.30;53.90
21540;DHT22;10931;52.164;5.518;2023-05-29T03:11:11;24.30;53.90
21540;DHT22;10931;52.164;5.518;2023-05-29T03:13:37;24.30;53.90
21540;DHT22;10931;52.164;5.518;2023-05-29T03:16:03;24.30;53.90
21540;DHT22;10931;52.164;5.518;2023-05-29T03:18:29;24.30;54.00
21540;DHT22;10931;52.164;5.518;2023-05-29T03:20:55;24.30;53.90
21540;DHT22;10931;52.164;5.518;2023-05-29T03:23:23;24.30;54.00
21540;DHT22;10931;52.164;5.518;2023-05-29T03:25:49;24.20;53.90
21540;DHT22;10931;52.164;5.518;2023-05-29T03:28:15;24.20;53.90
21540;DHT22;10931;52.164;5.518;2023-05-29T03:30:41;24.20;54.00
21540;DHT22;10931;52.164;5.518;2023-05-29T03:33:06;24.20;54.00
21540;DHT22;10931;52.164;5.518;2023-05-29T03:35:32;24.20;54.00
21540;DHT22;10931;52.164;5.518;2023-05-29T03:37:58;24.20;54.00
21540;DHT22;10931;52.164;5.518;2023-05-29T03:40:24;24.20;54.00
21540;DHT22;10931;52.164;5.518;2023-05-29T03:42:49;24.20;54.00
21540;DHT22;10931;52.164;5.518;2023-05-29T03:45:16;24.10;53.90
21540;DHT22;10931;52.164;5.518;2023-05-29T03:47:44;24.20;54.00
21540;DHT22;10931;52.164;5.518;2023-05-29T03:50:10;24.10;54.00
21540;DHT22;10931;52.164;5.518;2023-05-29T03:52:36;24.10;53.90
21540;DHT22;10931;52.164;5.518;2023-05-29T03:55:02;24.10;53.90
21540;DHT22;10931;52.164;5.518;2023-05-29T03:57:28;24.10;54.00
21540;DHT22;10931;52.164;5.518;2023-05-29T03:59:54;24.10;54.00
21540;DHT22;10931;52.164;5.518;2023-05-29T04:02:20;24.10;54.00
21540;DHT22;10931;52.164;5.518;2023-05-29T04:04:45;24.10;54.00
21540;DHT22;10931;52.164;5.518;2023-05-29T04:07:11;24.00;53.90
21540;DHT22;10931;52.164;5.518;2023-05-29T04:09:39;24.00;54.00
21540;DHT22;10931;52.164;5.518;2023-05-29T04:12:06;24.00;53.90
21540;DHT22;10931;52.164;5.518;2023-05-29T04:14:31;24.00;54.00
21540;DHT22;10931;52.164;5.518;2023-05-29T04:16:57;24.00;54.00
21540;DHT22;10931;52.164;5.518;2023-05-29T04:19:23;24.00;54.00
21540;DHT22;10931;52.164;5.518;2023-05-29T04:21:48;23.90;53.90
21540;DHT22;10931;52.164;5.518;2023-05-29T04:24:15;24.00;54.00
21540;DHT22;10931;52.164;5.518;2023-05-29T04:26:41;24.00;54.00
21540;DHT22;10931;52.164;5.518;2023-05-29T04:29:09;24.00;54.00
21540;DHT22;10931;52.164;5.518;2023-05-29T04:31:38;23.90;53.90
21540;DHT22;10931;52.164;5.518;2023-05-29T04:34:03;23.90;53.90
21540;DHT22;10931;52.164;5.518;2023-05-29T04:36:32;23.90;54.00
21540;DHT22;10931;52.164;5.518;2023-05-29T04:38:59;23.90;54.00
21540;DHT22;10931;52.164;5.518;2023-05-29T04:41:25;23.90;54.00
21540;DHT22;10931;52.164;5.518;2023-05-29T04:43:58;23.90;54.00
21540;DHT22;10931;52.164;5.518;2023-05-29T04:46:24;23.90;54.00
21540;DHT22;10931;52.164;5.518;2023-05-29T04:48:52;23.90;54.00
21540;DHT22;10931;52.164;5.518;2023-05-29T04:51:20;23.80;53.90
21540;DHT22;10931;52.164;5.518;2023-05-29T04:53:47;23.80;53.90
21540;DHT22;10931;52.164;5.518;2023-05-29T04:56:13;23.80;53.90
21540;DHT22;10931;52.164;5.518;2023-05-29T04:58:40;23.80;54.00
21540;DHT22;10931;52.164;5.518;2023-05-29T05:01:06;23.80;53.90
21540;DHT22;10931;52.164;5.518;2023-05-29T05:03:33;23.80;54.00
21540;DHT22;10931;52.164;5.518;2023-05-29T05:06:01;23.80;54.00
21540;DHT22;10931;52.164;5.518;2023-05-29T05:08:30;23.80;53.90
21540;DHT22;10931;52.164;5.518;2023-05-29T05:10:57;23.70;53.90
21540;DHT22;10931;52.164;5.518;2023-05-29T05:13:24;23.70;53.90
21540;DHT22;10931;52.164;5.518;2023-05-29T05:15:50;23.70;53.90
21540;DHT22;10931;52.164;5.518;2023-05-29T05:18:15;23.70;53.90
21540;DHT22;10931;52.164;5.518;2023-05-29T05:20:41;23.70;53.90
21540;DHT22;10931;52.164;5.518;2023-05-29T05:23:06;23.70;53.90
21540;DHT22;10931;52.164;5.518;2023-05-29T05:25:32;23.70;53.90
21540;DHT22;10931;52.164;5.518;2023-05-29T05:28:00;23.70;53.90
21540;DHT22;10931;52.164;5.518;2023-05-29T05:30:26;23.70;53.90
21540;DHT22;10931;52.164;5.518;2023-05-29T05:32:52;23.70;53.90
21540;DHT22;10931;52.164;5.518;2023-05-29T05:35:20;23.60;53.90
21540;DHT22;10931;52.164;5.518;2023-05-29T05:37:46;23.60;53.90
21540;DHT22;10931;52.164;5.518;2023-05-29T05:40:17;23.60;53.90
21540;DHT22;10931;52.164;5.518;2023-05-29T05:42:43;23.60;53.90
21540;DHT22;10931;52.164;5.518;2023-05-29T05:45:09;23.60;53.90
21540;DHT22;10931;52.164;5.518;2023-05-29T05:47:35;23.60;53.90
21540;DHT22;10931;52.164;5.518;2023-05-29T05:50:01;23.60;53.90
21540;DHT22;10931;52.164;5.518;2023-05-29T05:52:41;23.60;54.50
21540;DHT22;10931;52.164;5.518;2023-05-29T05:55:07;23.60;53.90
21540;DHT22;10931;52.164;5.518;2023-05-29T05:57:33;23.60;53.90
21540;DHT22;10931;52.164;5.518;2023-05-29T06:00:06;23.50;53.90
21540;DHT22;10931;52.164;5.518;2023-05-29T06:02:38;23.60;53.90
21540;DHT22;10931;52.164;5.518;2023-05-29T06:05:08;23.50;53.80
21540;DHT22;10931;52.164;5.518;2023-05-29T06:07:38;23.50;53.80
21540;DHT22;10931;52.164;5.518;2023-05-29T06:10:04;23.50;53.80
21540;DHT22;10931;52.164;5.518;2023-05-29T06:12:30;23.50;53.80
21540;DHT22;10931;52.164;5.518;2023-05-29T06:14:56;23.50;53.80
21540;DHT22;10931;52.164;5.518;2023-05-29T06:17:25;23.50;53.80
21540;DHT22;10931;52.164;5.518;2023-05-29T06:19:50;23.50;53.80
21540;DHT22;10931;52.164;5.518;2023-05-29T06:22:17;23.50;53.80
21540;DHT22;10931;52.164;5.518;2023-05-29T06:24:42;23.50;53.80
21540;DHT22;10931;52.164;5.518;2023-05-29T06:27:08;23.50;53.80
21540;DHT22;10931;52.164;5.518;2023-05-29T06:29:34;23.40;53.80
21540;DHT22;10931;52.164;5.518;2023-05-29T06:32:03;23.40;53.80
21540;DHT22;10931;52.164;5.518;2023-05-29T06:34:28;23.50;53.80
21540;DHT22;10931;52.164;5.518;2023-05-29T06:36:54;23.40;53.80
21540;DHT22;10931;52.164;5.518;2023-05-29T06:39:20;23.40;53.80
21540;DHT22;10931;52.164;5.518;2023-05-29T06:41:46;23.40;53.80
21540;DHT22;10931;52.164;5.518;2023-05-29T06:44:12;23.40;53.70
21540;DHT22;10931;52.164;5.518;2023-05-29T06:46:38;23.40;53.70
21540;DHT22;10931;52.164;5.518;2023-05-29T06:49:04;23.40;53.70
21540;DHT22;10931;52.164;5.518;2023-05-29T06:51:29;23.40;53.70
21540;DHT22;10931;52.164;5.518;2023-05-29T06:53:56;23.40;53.70
21540;DHT22;10931;52.164;5.518;2023-05-29T06:56:21;23.30;53.60
21540;DHT22;10931;52.164;5.518;2023-05-29T06:59:05;23.30;53.70
21540;DHT22;10931;52.164;5.518;2023-05-29T07:01:30;23.30;53.60
21540;DHT22;10931;52.164;5.518;2023-05-29T07:03:56;23.30;53.60
21540;DHT22;10931;52.164;5.518;2023-05-29T07:06:22;23.30;53.60
21540;DHT22;10931;52.164;5.518;2023-05-29T07:08:49;23.30;53.60
21540;DHT22;10931;52.164;5.518;2023-05-29T07:11:14;23.30;53.60
21540;DHT22;10931;52.164;5.518;2023-05-29T07:13:40;23.30;53.50
21540;DHT22;10931;52.164;5.518;2023-05-29T07:16:08;23.30;53.60
21540;DHT22;10931;52.164;5.518;2023-05-29T07:18:33;23.30;53.60
21540;DHT22;10931;52.164;5.518;2023-05-29T07:21:00;23.30;53.50
21540;DHT22;10931;52.164;5.518;2023-05-29T07:23:26;23.30;53.50
21540;DHT22;10931;52.164;5.518;2023-05-29T07:25:53;23.30;53.50
21540;DHT22;10931;52.164;5.518;2023-05-29T07:28:18;23.30;53.50
21540;DHT22;10931;52.164;5.518;2023-05-29T07:30:44;23.30;53.50
21540;DHT22;10931;52.164;5.518;2023-05-29T07:33:10;23.30;53.50
21540;DHT22;10931;52.164;5.518;2023-05-29T07:35:36;23.30;53.50
21540;DHT22;10931;52.164;5.518;2023-05-29T07:38:01;23.30;53.50
21540;DHT22;10931;52.164;5.518;2023-05-29T07:40:27;23.30;53.50
21540;DHT22;10931;52.164;5.518;2023-05-29T07:42:53;23.20;53.40
21540;DHT22;10931;52.164;5.518;2023-05-29T07:45:18;23.20;53.50
21540;DHT22;10931;52.164;5.518;2023-05-29T07:47:44;23.20;53.40
21540;DHT22;10931;52.164;5.518;2023-05-29T07:50:10;23.20;53.40
21540;DHT22;10931;52.164;5.518;2023-05-29T07:52:38;23.20;53.40
21540;DHT22;10931;52.164;5.518;2023-05-29T07:55:04;23.20;53.40
21540;DHT22;10931;52.164;5.518;2023-05-29T07:57:30;23.20;53.40
21540;DHT22;10931;52.164;5.518;2023-05-29T07:59:56;23.20;53.40
21540;DHT22;10931;52.164;5.518;2023-05-29T08:02:25;23.20;53.60
21540;DHT22;10931;52.164;5.518;2023-05-29T08:04:51;23.20;53.30
21540;DHT22;10931;52.164;5.518;2023-05-29T08:07:17;23.20;53.30
21540;DHT22;10931;52.164;5.518;2023-05-29T08:09:43;23.20;53.30
21540;DHT22;10931;52.164;5.518;2023-05-29T08:12:08;23.20;53.30
21540;DHT22;10931;52.164;5.518;2023-05-29T08:14:37;23.20;53.30
21540;DHT22;10931;52.164;5.518;2023-05-29T08:17:03;23.20;53.30
21540;DHT22;10931;52.164;5.518;2023-05-29T08:19:29;23.20;53.30
21540;DHT22;10931;52.164;5.518;2023-05-29T08:22:07;23.20;53.30
21540;DHT22;10931;52.164;5.518;2023-05-29T08:24:38;23.20;53.30
21540;DHT22;10931;52.164;5.518;2023-05-29T08:27:04;23.20;53.30
21540;DHT22;10931;52.164;5.518;2023-05-29T08:29:29;23.20;53.30
21540;DHT22;10931;52.164;5.518;2023-05-29T08:31:55;23.20;53.30
21540;DHT22;10931;52.164;5.518;2023-05-29T08:34:42;23.10;53.10
21540;DHT22;10931;52.164;5.518;2023-05-29T08:37:19;23.20;53.20
21540;DHT22;10931;52.164;5.518;2023-05-29T08:39:48;23.20;53.20
21540;DHT22;10931;52.164;5.518;2023-05-29T08:42:21;23.10;53.10
21540;DHT22;10931;52.164;5.518;2023-05-29T08:44:56;23.20;53.20
21540;DHT22;10931;52.164;5.518;2023-05-29T08:47:32;23.10;53.10
21540;DHT22;10931;52.164;5.518;2023-05-29T08:50:02;23.10;53.00
21540;DHT22;10931;52.164;5.518;2023-05-29T08:52:32;23.10;53.00
21540;DHT22;10931;52.164;5.518;2023-05-29T08:55:01;23.10;53.00
21540;DHT22;10931;52.164;5.518;2023-05-29T08:57:30;23.10;53.00
21540;DHT22;10931;52.164;5.518;2023-05-29T08:59:56;23.10;53.00
21540;DHT22;10931;52.164;5.518;2023-05-29T09:02:25;23.20;53.00
21540;DHT22;10931;52.164;5.518;2023-05-29T09:04:50;23.10;52.90
21540;DHT22;10931;52.164;5.518;2023-05-29T09:07:21;23.10;52.90
21540;DHT22;10931;52.164;5.518;2023-05-29T09:09:50;23.10;52.90
21540;DHT22;10931;52.164;5.518;2023-05-29T09:12:16;23.10;52.80
21540;DHT22;10931;52.164;5.518;2023-05-29T09:14:43;23.10;52.80
21540;DHT22;10931;52.164;5.518;2023-05-29T09:17:12;23.10;52.80
21540;DHT22;10931;52.164;5.518;2023-05-29T09:19:39;23.20;52.80
21540;DHT22;10931;52.164;5.518;2023-05-29T09:22:12;23.20;52.80
21540;DHT22;10931;52.164;5.518;2023-05-29T09:24:47;23.10;52.70
21540;DHT22;10931;52.164;5.518;2023-05-29T09:27:14;23.20;52.80
21540;DHT22;10931;52.164;5.518;2023-05-29T09:29:43;23.10;52.70
21540;DHT22;10931;52.164;5.518;2023-05-29T09:32:16;23.10;52.70
21540;DHT22;10931;52.164;5.518;2023-05-29T09:34:45;23.10;52.70
21540;DHT22;10931;52.164;5.518;2023-05-29T09:37:11;23.10;52.60
21540;DHT22;10931;52.164;5.518;2023-05-29T09:39:54;23.20;52.70
21540;DHT22;10931;52.164;5.518;2023-05-29T09:42:20;23.20;52.70
21540;DHT22;10931;52.164;5.518;2023-05-29T09:45:35;23.20;52.70
21540;DHT22;10931;52.164;5.518;2023-05-29T09:47:40;23.20;52.70
21540;DHT22;10931;52.164;5.518;2023-05-29T09:50:18;23.20;52.60
21540;DHT22;10931;52.164;5.518;2023-05-29T09:52:46;23.20;52.60
21540;DHT22;10931;52.164;5.518;2023-05-29T09:55:14;23.20;52.60
21540;DHT22;10931;52.164;5.518;2023-05-29T09:57:46;23.20;52.50
21540;DHT22;10931;52.164;5.518;2023-05-29T10:00:12;23.20;52.50
21540;DHT22;10931;52.164;5.518;2023-05-29T10:02:41;23.20;52.50
21540;DHT22;10931;52.164;5.518;2023-05-29T10:05:10;23.20;52.50
21540;DHT22;10931;52.164;5.518;2023-05-29T10:07:37;23.20;52.50
21540;DHT22;10931;52.164;5.518;2023-05-29T10:10:08;23.20;52.50
21540;DHT22;10931;52.164;5.518;2023-05-29T10:12:38;23.20;52.50
21540;DHT22;10931;52.164;5.518;2023-05-29T10:15:11;23.20;52.50
21540;DHT22;10931;52.164;5.518;2023-05-29T10:18:31;23.20;52.50
21540;DHT22;10931;52.164;5.518;2023-05-29T10:21:00;23.30;52.50
21540;DHT22;10931;52.164;5.518;2023-05-29T10:23:28;23.20;52.50
21540;DHT22;10931;52.164;5.518;2023-05-29T10:26:01;23.20;52.50
21540;DHT22;10931;52.164;5.518;2023-05-29T10:28:30;23.30;52.50
21540;DHT22;10931;52.164;5.518;2023-05-29T10:31:03;23.30;52.50
21540;DHT22;10931;52.164;5.518;2023-05-29T10:34:07;23.30;52.50
21540;DHT22;10931;52.164;5.518;2023-05-29T10:36:38;23.30;52.50
21540;DHT22;10931;52.164;5.518;2023-05-29T10:39:07;23.30;52.50
21540;DHT22;10931;52.164;5.518;2023-05-29T10:41:34;23.30;52.50
21540;DHT22;10931;52.164;5.518;2023-05-29T10:49:24;23.30;52.50
21540;DHT22;10931;52.164;5.518;2023-05-29T10:51:51;23.30;52.50
21540;DHT22;10931;52.164;5.518;2023-05-29T10:54:25;23.30;52.50
21540;DHT22;10931;52.164;5.518;2023-05-29T10:57:00;23.30;52.50
21540;DHT22;10931;52.164;5.518;2023-05-29T10:59:26;23.30;52.50
21540;DHT22;10931;52.164;5.518;2023-05-29T11:02:05;23.30;52.50
21540;DHT22;10931;52.164;5.518;2023-05-29T11:04:31;23.40;52.50
21540;DHT22;10931;52.164;5.518;2023-05-29T11:06:58;23.40;52.50
21540;DHT22;10931;52.164;5.518;2023-05-29T11:09:38;23.40;52.50
21540;DHT22;10931;52.164;5.518;2023-05-29T11:15:00;23.40;52.40
21540;DHT22;10931;52.164;5.518;2023-05-29T11:17:31;23.40;52.50
21540;DHT22;10931;52.164;5.518;2023-05-29T11:20:00;23.40;52.40
21540;DHT22;10931;52.164;5.518;2023-05-29T11:25:11;23.50;52.40
21540;DHT22;10931;52.164;5.518;2023-05-29T11:27:39;23.40;52.30
21540;DHT22;10931;52.164;5.518;2023-05-29T11:30:05;23.50;52.30
21540;DHT22;10931;52.164;5.518;2023-05-29T11:32:52;23.50;52.30
21540;DHT22;10931;52.164;5.518;2023-05-29T11:35:25;23.50;52.30
21540;DHT22;10931;52.164;5.518;2023-05-29T11:37:53;23.50;52.30
21540;DHT22;10931;52.164;5.518;2023-05-29T11:40:19;23.50;52.30
21540;DHT22;10931;52.164;5.518;2023-05-29T11:42:50;23.60;52.30
21540;DHT22;10931;52.164;5.518;2023-05-29T11:45:19;23.50;52.20
21540;DHT22;10931;52.164;5.518;2023-05-29T11:47:56;23.60;52.20
21540;DHT22;10931;52.164;5.518;2023-05-29T11:50:23;23.60;52.20
21540;DHT22;10931;52.164;5.518;2023-05-29T11:52:49;23.60;52.20
21540;DHT22;10931;52.164;5.518;2023-05-29T11:55:20;23.60;52.10
21540;DHT22;10931;52.164;5.518;2023-05-29T11:57:56;23.60;52.20
21540;DHT22;10931;52.164;5.518;2023-05-29T12:00:22;23.60;52.10
21540;DHT22;10931;52.164;5.518;2023-05-29T12:02:48;23.60;52.10
21540;DHT22;10931;52.164;5.518;2023-05-29T12:05:16;23.70;52.20
21540;DHT22;10931;52.164;5.518;2023-05-29T12:07:54;23.70;52.10
21540;DHT22;10931;52.164;5.518;2023-05-29T12:10:24;23.70;52.10
21540;DHT22;10931;52.164;5.518;2023-05-29T12:12:55;23.70;52.10
21540;DHT22;10931;52.164;5.518;2023-05-29T12:15:22;23.70;52.10
21540;DHT22;10931;52.164;5.518;2023-05-29T12:17:49;23.80;52.10
21540;DHT22;10931;52.164;5.518;2023-05-29T12:20:19;23.80;52.10
21540;DHT22;10931;52.164;5.518;2023-05-29T12:22:49;23.80;52.10
21540;DHT22;10931;52.164;5.518;2023-05-29T12:25:20;23.80;52.10
21540;DHT22;10931;52.164;5.518;2023-05-29T12:27:59;23.80;52.00
21540;DHT22;10931;52.164;5.518;2023-05-29T12:30:44;23.80;52.00
21540;DHT22;10931;52.164;5.518;2023-05-29T12:33:30;23.80;51.90
21540;DHT22;10931;52.164;5.518;2023-05-29T12:36:15;23.80;52.00
21540;DHT22;10931;52.164;5.518;2023-05-29T12:38:51;23.90;52.00
21540;DHT22;10931;52.164;5.518;2023-05-29T12:41:29;23.90;52.00
21540;DHT22;10931;52.164;5.518;2023-05-29T12:44:08;23.90;51.90
21540;DHT22;10931;52.164;5.518;2023-05-29T12:47:00;23.90;51.90
21540;DHT22;10931;52.164;5.518;2023-05-29T12:49:36;23.90;51.90
21540;DHT22;10931;52.164;5.518;2023-05-29T12:52:10;24.00;52.00
21540;DHT22;10931;52.164;5.518;2023-05-29T12:54:37;23.90;51.90
21540;DHT22;10931;52.164;5.518;2023-05-29T12:57:11;23.90;51.90
21540;DHT22;10931;52.164;5.518;2023-05-29T12:59:37;24.00;51.90
21540;DHT22;10931;52.164;5.518;2023-05-29T13:02:24;24.00;51.90
21540;DHT22;10931;52.164;5.518;2023-05-29T13:05:22;24.00;51.80
21540;DHT22;10931;52.164;5.518;2023-05-29T13:08:15;24.00;51.80
21540;DHT22;10931;52.164;5.518;2023-05-29T13:11:04;24.10;51.90
21540;DHT22;10931;52.164;5.518;2023-05-29T13:13:52;24.10;51.80
21540;DHT22;10931;52.164;5.518;2023-05-29T13:16:23;24.10;51.80
21540;DHT22;10931;52.164;5.518;2023-05-29T13:19:53;24.20;51.80
21540;DHT22;10931;52.164;5.518;2023-05-29T13:22:19;24.20;51.80
21540;DHT22;10931;52.164;5.518;2023-05-29T13:25:09;24.20;51.80
21540;DHT22;10931;52.164;5.518;2023-05-29T13:28:01;24.20;51.80
21540;DHT22;10931;52.164;5.518;2023-05-29T13:34:27;24.20;51.80
21540;DHT22;10931;52.164;5.518;2023-05-29T13:36:55;24.20;51.70
21540;DHT22;10931;52.164;5.518;2023-05-29T13:39:21;24.20;51.70
21540;DHT22;10931;52.164;5.518;2023-05-29T13:41:50;24.20;51.70
21540;DHT22;10931;52.164;5.518;2023-05-29T13:44:16;24.30;51.70
21540;DHT22;10931;52.164;5.518;2023-05-29T13:46:54;24.30;51.70
21540;DHT22;10931;52.164;5.518;2023-05-29T13:49:46;24.30;51.70
21540;DHT22;10931;52.164;5.518;2023-05-29T13:52:34;24.30;51.70
21540;DHT22;10931;52.164;5.518;2023-05-29T13:55:00;24.40;51.70
21540;DHT22;10931;52.164;5.518;2023-05-29T13:57:34;24.30;51.70
21540;DHT22;10931;52.164;5.518;2023-05-29T14:00:36;24.30;51.60
21540;DHT22;10931;52.164;5.518;2023-05-29T14:03:20;24.40;51.70
21540;DHT22;10931;52.164;5.518;2023-05-29T14:05:55;24.40;51.70
21540;DHT22;10931;52.164;5.518;2023-05-29T14:08:30;24.40;51.60
21540;DHT22;10931;52.164;5.518;2023-05-29T14:13:56;24.50;51.70
21540;DHT22;10931;52.164;5.518;2023-05-29T14:16:22;24.50;51.70
21540;DHT22;10931;52.164;5.518;2023-05-29T14:19:09;24.50;51.70
21540;DHT22;10931;52.164;5.518;2023-05-29T14:21:38;24.60;51.70
21540;DHT22;10931;52.164;5.518;2023-05-29T14:24:06;24.50;51.70
21540;DHT22;10931;52.164;5.518;2023-05-29T14:26:33;24.60;51.60
21540;DHT22;10931;52.164;5.518;2023-05-29T14:29:05;24.60;51.60
21540;DHT22;10931;52.164;5.518;2023-05-29T14:31:31;24.60;51.60
21540;DHT22;10931;52.164;5.518;2023-05-29T14:33:57;24.60;51.60
21540;DHT22;10931;52.164;5.518;2023-05-29T14:36:23;24.60;51.60
21540;DHT22;10931;52.164;5.518;2023-05-29T14:38:56;24.60;51.60
21540;DHT22;10931;52.164;5.518;2023-05-29T14:41:22;24.70;51.60
21540;DHT22;10931;52.164;5.518;2023-05-29T14:43:57;24.70;51.70
21540;DHT22;10931;52.164;5.518;2023-05-29T14:46:29;24.70;51.60
21540;DHT22;10931;52.164;5.518;2023-05-29T14:48:59;24.70;51.60
21540;DHT22;10931;52.164;5.518;2023-05-29T14:51:31;24.70;51.60
21540;DHT22;10931;52.164;5.518;2023-05-29T14:53:59;24.80;51.60
21540;DHT22;10931;52.164;5.518;2023-05-29T14:56:37;24.80;51.60
21540;DHT22;10931;52.164;5.518;2023-05-29T14:59:13;24.80;51.60
21540;DHT22;10931;52.164;5.518;2023-05-29T15:01:55;24.80;51.60
21540;DHT22;10931;52.164;5.518;2023-05-29T15:04:51;24.80;51.60
21540;DHT22;10931;52.164;5.518;2023-05-29T15:07:47;24.90;51.60
21540;DHT22;10931;52.164;5.518;2023-05-29T15:10:34;24.90;51.60
21540;DHT22;10931;52.164;5.518;2023-05-29T15:13:03;24.90;51.60
21540;DHT22;10931;52.164;5.518;2023-05-29T15:15:34;24.90;51.60
21540;DHT22;10931;52.164;5.518;2023-05-29T15:18:23;24.90;51.50
21540;DHT22;10931;52.164;5.518;2023-05-29T15:20:53;24.90;51.50
21540;DHT22;10931;52.164;5.518;2023-05-29T15:23:28;24.90;51.60
21540;DHT22;10931;52.164;5.518;2023-05-29T15:25:56;25.00;51.60
21540;DHT22;10931;52.164;5.518;2023-05-29T15:28:38;25.00;51.50
21540;DHT22;10931;52.164;5.518;2023-05-29T15:31:04;25.00;51.50
21540;DHT22;10931;52.164;5.518;2023-05-29T15:33:29;25.00;51.50
21540;DHT22;10931;52.164;5.518;2023-05-29T15:35:59;25.00;51.40
21540;DHT22;10931;52.164;5.518;2023-05-29T15:38:25;25.10;51.40
21540;DHT22;10931;52.164;5.518;2023-05-29T15:40:51;25.10;51.40
21540;DHT22;10931;52.164;5.518;2023-05-29T15:43:24;25.10;51.40
21540;DHT22;10931;52.164;5.518;2023-05-29T15:45:51;25.10;51.40
21540;DHT22;10931;52.164;5.518;2023-05-29T15:48:16;25.10;51.40
21540;DHT22;10931;52.164;5.518;2023-05-29T15:50:42;25.10;51.40
21540;DHT22;10931;52.164;5.518;2023-05-29T15:53:08;25.10;51.30
21540;DHT22;10931;52.164;5.518;2023-05-29T15:55:33;25.10;51.40
21540;DHT22;10931;52.164;5.518;2023-05-29T15:58:00;25.20;51.40
21540;DHT22;10931;52.164;5.518;2023-05-29T16:00:33;25.20;51.40
21540;DHT22;10931;52.164;5.518;2023-05-29T16:03:04;25.20;51.30
21540;DHT22;10931;52.164;5.518;2023-05-29T16:05:36;25.20;51.30
21540;DHT22;10931;52.164;5.518;2023-05-29T16:08:02;25.20;51.20
21540;DHT22;10931;52.164;5.518;2023-05-29T16:10:28;25.20;51.20